Time;durP1;ratioP1;P1;durP2;ratioP2;P2;SDS_P1;SDS_P2;PMS_P1;PMS_P2;Temp;Humidity;BMP_temperature;BMP_pressure;BME280_temperature;BME280_humidity;BME280_pressure;Samples;Min_cycle;Max_cycle;Signal;HPM_P1;HPM_P2
2022/01/29 00:02:03;;;;;;;;;21.25;20.25;;;;;9.67;64.42;103421.72;5100156;27;45393;-85
2022/01/29 00:04:29;;;;;;;;;26.50;23.75;;;;;9.68;64.36;103423.47;5100160;27;45503;-84
2022/01/29 00:06:55;;;;;;;;;24.00;21.50;;;;;9.70;64.46;103413.00;5099107;27;46851;-85
2022/01/29 00:09:20;;;;;;;;;26.75;23.00;;;;;9.73;64.50;103417.44;5100955;27;46302;-85
2022/01/29 00:11:45;;;;;;;;;24.25;23.00;;;;;9.72;64.41;103411.28;5100748;27;45345;-84
2022/01/29 00:14:11;;;;;;;;;20.75;19.00;;;;;9.77;64.47;103413.97;5100162;27;45354;-85
2022/01/29 00:16:37;;;;;;;;;19.00;18.75;;;;;9.74;64.22;103406.94;5100507;27;45433;-85
2022/01/29 00:19:03;;;;;;;;;25.25;22.00;;;;;9.76;63.91;103402.56;5100859;27;45491;-85
2022/01/29 00:21:29;;;;;;;;;23.25;21.25;;;;;9.73;64.32;103406.94;5100743;27;45466;-85
2022/01/29 00:23:54;;;;;;;;;25.50;18.75;;;;;9.70;64.12;103401.63;5100848;27;45215;-85
2022/01/29 00:26:22;;;;;;;;;22.75;22.75;;;;;9.71;63.90;103398.13;5100229;27;45378;-85
2022/01/29 00:28:48;;;;;;;;;27.50;22.00;;;;;9.71;64.15;103387.59;5100558;27;46535;-85
2022/01/29 00:31:13;;;;;;;;;24.75;21.00;;;;;9.70;64.18;103383.25;5099101;27;45751;-85
2022/01/29 00:33:38;;;;;;;;;18.25;17.75;;;;;9.71;64.21;103383.25;5100290;27;45489;-84
2022/01/29 00:36:05;;;;;;;;;24.75;24.00;;;;;9.72;64.18;103373.63;5100084;27;45547;-85
2022/01/29 00:38:30;;;;;;;;;25.00;20.25;;;;;9.74;64.14;103374.53;5100361;27;46358;-86
2022/01/29 00:40:56;;;;;;;;;23.00;18.00;;;;;9.74;64.21;103369.28;5098774;27;45340;-90
2022/01/29 00:43:21;;;;;;;;;23.50;20.00;;;;;9.74;64.24;103364.03;5100397;27;45424;-88
2022/01/29 00:45:47;;;;;;;;;20.50;19.75;;;;;9.72;63.84;103353.50;5098810;27;47296;-89
2022/01/29 00:48:12;;;;;;;;;23.25;21.00;;;;;9.68;63.62;103365.69;5111832;27;46479;-90
2022/01/29 00:50:37;;;;;;;;;19.75;18.00;;;;;9.66;63.72;103354.28;5097381;27;45424;-90
2022/01/29 00:53:03;;;;;;;;;25.50;18.75;;;;;9.68;63.90;103355.19;5100304;27;45431;-90
2022/01/29 00:55:28;;;;;;;;;23.00;21.50;;;;;9.68;64.19;103352.56;5100299;27;45346;-91
2022/01/29 00:57:54;;;;;;;;;21.00;20.50;;;;;9.69;63.33;103350.84;5099181;27;47310;-89
2022/01/29 01:00:19;;;;;;;;;21.00;18.00;;;;;9.66;63.56;103346.41;5099886;27;45351;-88
2022/01/29 01:02:45;;;;;;;;;15.50;15.00;;;;;9.63;63.73;103356.88;5099905;27;45206;-91
2022/01/29 01:05:11;;;;;;;;;18.00;16.25;;;;;9.64;63.84;103348.16;5099841;27;45165;-90
2022/01/29 01:07:37;;;;;;;;;18.25;13.00;;;;;9.63;63.89;103348.13;5098557;27;47227;-87
2022/01/29 01:10:06;;;;;;;;;21.50;17.50;;;;;9.63;63.63;103340.25;5099638;27;45748;-87
2022/01/29 01:12:32;;;;;;;;;17.50;15.50;;;;;9.63;63.99;103337.63;5099775;27;45332;-89
2022/01/29 01:14:58;;;;;;;;;21.25;19.75;;;;;9.61;63.43;103334.97;5098370;27;45497;-88
2022/01/29 01:17:23;;;;;;;;;19.75;17.50;;;;;9.59;64.11;103328.81;5099850;27;46252;-88
2022/01/29 01:19:49;;;;;;;;;18.75;16.50;;;;;9.61;64.04;103334.09;5099282;27;45215;-88
2022/01/29 01:22:16;;;;;;;;;22.00;18.25;;;;;9.61;64.25;103339.34;5099715;27;45472;-88
2022/01/29 01:24:42;;;;;;;;;19.25;19.00;;;;;9.59;64.43;103334.06;5099938;27;45258;-88
2022/01/29 01:27:07;;;;;;;;;17.50;16.75;;;;;9.63;64.47;103342.88;5099813;27;45229;-83
2022/01/29 01:29:33;;;;;;;;;22.50;19.50;;;;;9.57;64.62;103335.81;5099047;27;45669;-83
2022/01/29 01:31:59;;;;;;;;;24.25;18.75;;;;;9.59;65.22;103341.06;5098349;27;45432;-83
2022/01/29 01:34:27;;;;;;;;;20.50;19.25;;;;;9.61;64.96;103344.59;5099444;27;45724;-84
2022/01/29 01:36:57;;;;;;;;;21.25;18.00;;;;;9.57;65.16;103341.94;5099670;27;45411;-84
2022/01/29 01:39:28;;;;;;;;;17.50;17.50;;;;;9.59;65.36;103344.56;5099493;27;45676;-82
2022/01/29 01:41:58;;;;;;;;;20.00;16.00;;;;;9.60;66.02;103333.22;5099709;27;45329;-82
2022/01/29 01:44:24;;;;;;;;;23.00;21.00;;;;;9.57;65.42;103334.06;5115575;27;46206;-83
2022/01/29 01:46:49;;;;;;;;;19.75;17.50;;;;;9.58;65.34;103337.53;5099489;27;46224;-84
2022/01/29 01:49:16;;;;;;;;;23.75;18.50;;;;;9.57;65.76;103344.56;5099102;27;45444;-84
2022/01/29 01:51:42;;;;;;;;;19.00;17.25;;;;;9.56;65.87;103339.28;5099341;27;45293;-84
2022/01/29 01:54:08;;;;;;;;;18.00;16.25;;;;;9.56;66.08;103339.28;5099134;27;45490;-86
2022/01/29 01:56:33;;;;;;;;;21.00;18.75;;;;;9.56;65.62;103329.66;5099589;27;45338;-87
2022/01/29 01:58:59;;;;;;;;;21.75;17.00;;;;;9.55;65.92;103324.41;5099629;27;45374;-86
2022/01/29 02:01:24;;;;;;;;;16.75;12.50;;;;;9.55;65.90;103320.03;5102820;27;45446;-83
2022/01/29 02:03:49;;;;;;;;;21.50;19.50;;;;;9.54;66.08;103327.88;5102733;27;45413;-83
2022/01/29 02:06:15;;;;;;;;;18.00;16.75;;;;;9.54;66.21;103322.63;5102899;27;46101;-83
2022/01/29 02:08:41;;;;;;;;;17.75;14.50;;;;;9.57;66.29;103322.66;5102137;27;45210;-83
2022/01/29 02:11:08;;;;;;;;;16.75;16.50;;;;;9.56;66.39;103313.91;5103145;27;45293;-85
2022/01/29 02:13:34;;;;;;;;;22.50;18.50;;;;;9.59;66.50;103313.06;5103604;27;45500;-91
2022/01/29 02:16:01;;;;;;;;;21.00;19.25;;;;;9.60;66.38;103306.06;5102295;27;45407;-87
2022/01/29 02:18:26;;;;;;;;;20.50;17.50;;;;;9.52;66.72;103304.25;5102213;27;45745;-86
2022/01/29 02:20:53;;;;;;;;;18.50;18.25;;;;;9.50;66.44;103302.44;5102465;27;45431;-86
2022/01/29 02:23:18;;;;;;;;;17.75;16.75;;;;;9.52;66.54;103300.72;5102854;27;45254;-86
2022/01/29 02:25:46;;;;;;;;;22.00;18.00;;;;;9.51;66.27;103299.84;5102056;27;46638;-86
2022/01/29 02:28:14;;;;;;;;;22.25;18.25;;;;;9.52;66.45;103301.59;5089033;27;45311;-87
2022/01/29 02:30:42;;;;;;;;;22.50;18.00;;;;;9.51;66.05;103285.81;5102485;27;45431;-88
2022/01/29 02:33:11;;;;;;;;;20.75;17.25;;;;;9.48;66.77;103284.06;5104669;27;45470;-85
2022/01/29 02:35:39;;;;;;;;;18.50;17.50;;;;;9.49;66.53;103283.19;5107187;27;46411;-86
2022/01/29 02:38:05;;;;;;;;;20.00;16.75;;;;;9.49;66.33;103279.66;5102534;27;45466;-86
2022/01/29 02:40:35;;;;;;;;;18.00;17.00;;;;;9.47;66.52;103279.66;5102476;27;45340;-86
2022/01/29 02:43:13;;;;;;;;;17.25;15.50;;;;;9.48;66.60;103273.56;5102352;27;45309;-86
2022/01/29 02:45:40;;;;;;;;;17.00;17.00;;;;;9.51;66.85;103276.19;5100516;27;47402;-87
2022/01/29 02:48:06;;;;;;;;;16.50;15.25;;;;;9.48;66.54;103275.31;5101065;27;46042;-87
2022/01/29 02:50:31;;;;;;;;;21.50;18.50;;;;;9.45;66.78;103265.63;5100852;27;45409;-90
2022/01/29 02:52:57;;;;;;;;;24.25;16.75;;;;;9.48;66.90;103262.16;5101078;27;45610;-89
2022/01/29 02:55:24;;;;;;;;;18.25;17.75;;;;;9.50;66.68;103257.81;5101956;27;45538;-89
2022/01/29 02:57:49;;;;;;;;;18.75;15.75;;;;;9.45;66.84;103245.53;5102335;27;45228;-89
2022/01/29 03:00:14;;;;;;;;;19.25;16.25;;;;;9.47;66.67;103248.16;5102273;27;45226;-92
2022/01/29 03:02:40;;;;;;;;;17.50;14.50;;;;;9.45;66.64;103242.91;5101993;27;45455;-89
2022/01/29 03:05:06;;;;;;;;;23.50;17.00;;;;;9.45;67.13;103240.28;5101249;27;46586;-88
2022/01/29 03:07:31;;;;;;;;;17.00;16.25;;;;;9.48;67.03;103238.53;5100450;27;45331;-88
2022/01/29 03:09:56;;;;;;;;;17.75;17.00;;;;;9.48;67.03;103243.78;5102219;27;45807;-93
2022/01/29 03:12:22;;;;;;;;;21.50;15.25;;;;;9.45;66.91;103240.28;5100101;27;47179;-92
2022/01/29 03:14:47;;;;;;;;;22.25;15.75;;;;;9.41;67.14;103235.81;5102097;27;45272;-92
2022/01/29 03:17:13;;;;;;;;;17.25;14.50;;;;;9.42;67.27;103224.47;5101865;27;45350;-92
2022/01/29 03:19:38;;;;;;;;;15.25;15.25;;;;;9.41;66.96;103222.69;5102036;27;45555;-90
2022/01/29 03:22:03;;;;;;;;;17.50;15.00;;;;;9.45;66.91;103219.28;5101712;27;45442;-86
2022/01/29 03:24:29;;;;;;;;;16.50;13.75;;;;;9.48;66.81;103228.03;5102186;27;45251;-94
2022/01/29 03:26:54;;;;;;;;;18.75;17.00;;;;;9.49;67.25;103224.53;5101193;27;45332;-95
2022/01/29 03:29:21;;;;;;;;;20.00;17.75;;;;;9.45;67.15;103216.66;5105472;27;45362;-96
2022/01/29 03:31:46;;;;;;;;;16.25;16.00;;;;;9.47;67.18;103205.25;5102386;27;46296;-96
2022/01/29 03:34:11;;;;;;;;;20.75;16.00;;;;;9.48;66.92;103205.31;5117671;27;47182;-93
2022/01/29 03:36:37;;;;;;;;;21.00;18.75;;;;;9.49;67.35;103211.41;5099810;27;45406;-93
2022/01/29 03:39:03;;;;;;;;;22.75;19.00;;;;;9.44;67.52;103211.34;5100340;27;45427;-88
2022/01/29 03:41:29;;;;;;;;;20.25;17.25;;;;;9.45;67.34;103218.38;5101210;27;45427;-88
2022/01/29 03:43:57;;;;;;;;;18.75;16.00;;;;;9.44;67.51;103228.00;5101240;27;45440;-90
2022/01/29 03:46:23;;;;;;;;;16.75;16.75;;;;;9.48;67.63;103233.28;5101798;27;45758;-86
2022/01/29 03:48:49;;;;;;;;;19.00;17.50;;;;;9.49;67.64;103235.94;5100193;27;45294;-85
2022/01/29 03:51:14;;;;;;;;;17.00;16.50;;;;;9.49;67.63;103224.53;5101275;27;45335;-84
2022/01/29 03:53:39;;;;;;;;;19.50;18.50;;;;;9.50;67.51;103228.94;5100810;27;45638;-87
2022/01/29 03:56:05;;;;;;;;;18.25;15.00;;;;;9.50;67.89;103223.69;5101154;27;45501;-87
2022/01/29 03:58:30;;;;;;;;;17.25;13.25;;;;;9.49;67.88;103224.53;5100004;27;45406;-87
2022/01/29 04:00:56;;;;;;;;;22.25;16.75;;;;;9.49;67.54;103235.03;5101167;27;45292;-86
2022/01/29 04:03:21;;;;;;;;;22.25;18.00;;;;;9.47;67.72;103226.28;5100506;27;45385;-87
2022/01/29 04:05:46;;;;;;;;;22.25;21.50;;;;;9.45;67.78;103219.28;5100850;27;45435;-87
2022/01/29 04:08:17;;;;;;;;;23.00;17.50;;;;;9.49;67.92;103221.91;5099812;27;45353;-86
2022/01/29 04:10:43;;;;;;;;;18.50;18.00;;;;;9.53;67.80;103226.34;5101093;27;45356;-86
2022/01/29 04:13:11;;;;;;;;;26.75;20.50;;;;;9.52;67.54;103220.22;5100404;27;45503;-86
2022/01/29 04:15:37;;;;;;;;;23.25;19.50;;;;;9.49;68.19;103220.16;5097236;27;45970;-87
2022/01/29 04:18:03;;;;;;;;;17.25;14.75;;;;;9.49;68.22;103219.28;5099306;27;45559;-85
2022/01/29 04:20:28;;;;;;;;;21.25;19.50;;;;;9.49;67.87;103214.94;5100929;27;45252;-83
2022/01/29 04:22:54;;;;;;;;;21.25;18.50;;;;;9.51;68.11;103220.19;5097776;27;48497;-83
2022/01/29 04:25:19;;;;;;;;;19.75;17.25;;;;;9.56;68.35;103223.75;5099710;27;45408;-91
2022/01/29 04:27:46;;;;;;;;;18.00;16.50;;;;;9.56;68.03;103215.88;5099116;27;45388;-92
2022/01/29 04:30:43;;;;;;;;;22.00;20.25;;;;;9.59;68.35;103210.66;5099480;27;45833;-92
2022/01/29 04:33:15;;;;;;;;;22.50;20.00;;;;;9.58;68.08;103203.63;5099681;27;46545;-91
2022/01/29 04:35:41;;;;;;;;;19.25;18.00;;;;;9.62;68.31;103215.94;5098891;27;45863;-86
2022/01/29 04:38:06;;;;;;;;;20.75;19.50;;;;;9.63;68.05;103215.06;5099170;27;45248;-87
2022/01/29 04:40:34;;;;;;;;;21.00;17.25;;;;;9.64;68.32;103216.84;5100540;27;45310;-89
2022/01/29 04:42:59;;;;;;;;;20.50;17.00;;;;;9.64;68.40;103222.09;5100393;27;46457;-89
2022/01/29 04:45:25;;;;;;;;;17.00;16.00;;;;;9.66;68.28;103219.47;5100057;27;45405;-88
2022/01/29 04:47:50;;;;;;;;;17.00;16.50;;;;;9.68;68.04;103216.00;5100013;27;45414;-86
2022/01/29 04:50:16;;;;;;;;;21.75;17.75;;;;;9.67;68.67;103216.88;5098887;27;45839;-87
2022/01/29 04:52:41;;;;;;;;;21.50;20.25;;;;;9.67;68.21;103216.00;5098666;27;46957;-88
2022/01/29 04:55:07;;;;;;;;;19.75;19.75;;;;;9.66;68.36;103207.22;5099845;27;45420;-86
2022/01/29 04:57:33;;;;;;;;;18.00;17.25;;;;;9.69;68.31;103211.63;5100521;27;45338;-87
2022/01/29 04:59:59;;;;;;;;;19.25;17.50;;;;;9.70;68.27;103207.28;5100026;27;45452;-87
2022/01/29 05:02:24;;;;;;;;;24.50;19.75;;;;;9.70;68.35;103208.16;5099531;27;45215;-87
2022/01/29 05:04:50;;;;;;;;;25.75;20.00;;;;;9.72;68.36;103206.44;5099608;27;45247;-87
2022/01/29 05:07:15;;;;;;;;;20.75;20.00;;;;;9.72;68.68;103200.28;5098876;27;45805;-84
2022/01/29 05:09:40;;;;;;;;;22.50;18.25;;;;;9.72;68.60;103202.91;5098760;27;46406;-85
2022/01/29 05:12:07;;;;;;;;;21.25;17.25;;;;;9.74;68.58;103202.06;5099594;27;45479;-88
2022/01/29 05:27:53;;;;;;;;;22.25;19.00;;;;;9.72;68.42;103206.44;5100822;27;45390;-95
2022/01/29 05:30:19;;;;;;;;;23.25;19.50;;;;;9.74;68.39;103206.44;5099048;27;45776;-91
2022/01/29 05:32:44;;;;;;;;;21.50;16.00;;;;;9.76;68.52;103208.22;5098894;27;46480;-92
2022/01/29 05:35:10;;;;;;;;;19.00;15.25;;;;;9.73;68.71;103208.16;5102224;27;45286;-90
2022/01/29 05:37:35;;;;;;;;;25.50;22.50;;;;;9.79;68.72;103217.88;5102531;27;45298;-94
2022/01/29 05:40:00;;;;;;;;;23.25;19.00;;;;;9.77;68.68;103215.25;5102539;27;45461;-92
2022/01/29 05:42:26;;;;;;;;;22.75;18.75;;;;;9.83;68.43;103221.44;5104658;27;47263;-94
2022/01/29 05:44:51;;;;;;;;;20.75;19.00;;;;;9.78;68.72;103205.59;5102603;27;45223;-93
2022/01/29 05:47:17;;;;;;;;;24.50;18.00;;;;;9.77;68.41;103207.38;5103817;27;45152;-93
2022/01/29 05:49:42;;;;;;;;;19.00;17.25;;;;;9.80;68.76;103209.13;5102484;27;46113;-94
2022/01/29 05:52:07;;;;;;;;;17.75;17.50;;;;;9.82;68.59;103196.91;5103655;27;45400;-88
2022/01/29 05:54:33;;;;;;;;;21.50;18.75;;;;;9.82;68.71;103191.66;5101971;27;45960;-88
2022/01/29 05:56:58;;;;;;;;;23.25;18.25;;;;;9.88;68.75;103196.94;5103306;27;45505;-89
2022/01/29 05:59:23;;;;;;;;;18.75;15.75;;;;;9.87;68.51;103184.69;5101732;27;47380;-89
2022/01/29 06:01:49;;;;;;;;;19.25;17.75;;;;;9.90;68.79;103184.69;5108249;27;45548;-89
2022/01/29 06:04:14;;;;;;;;;21.25;19.00;;;;;9.90;68.57;103183.84;5103105;27;45587;-89
2022/01/29 06:06:40;;;;;;;;;18.75;16.25;;;;;9.95;68.58;103197.03;5101627;27;45313;-91
2022/01/29 06:09:05;;;;;;;;;23.25;19.25;;;;;9.95;68.37;103197.03;5102867;27;45333;-92
2022/01/29 06:11:32;;;;;;;;;22.25;17.25;;;;;9.96;68.53;103190.88;5102823;27;46284;-93
2022/01/29 06:13:57;;;;;;;;;17.50;16.25;;;;;9.98;68.78;103190.03;5101829;27;45263;-92
2022/01/29 06:16:23;;;;;;;;;22.50;19.50;;;;;9.99;68.60;103193.53;5103021;27;45889;-86
2022/01/29 06:18:48;;;;;;;;;19.25;18.25;;;;;9.99;68.64;103190.91;5102608;27;45303;-87
2022/01/29 06:21:14;;;;;;;;;17.50;16.50;;;;;10.02;68.54;103196.22;5100855;27;48040;-87
2022/01/29 06:23:40;;;;;;;;;16.25;15.50;;;;;10.01;68.48;103192.69;5102978;27;45749;-85
2022/01/29 06:26:10;;;;;;;;;22.00;17.25;;;;;10.04;68.55;103197.09;5101082;27;45522;-85
2022/01/29 06:28:36;;;;;;;;;19.25;16.50;;;;;10.01;68.56;103197.06;5102375;27;45631;-84
2022/01/29 06:31:03;;;;;;;;;21.25;19.00;;;;;10.04;68.39;103196.22;5101962;27;46615;-85
2022/01/29 06:33:29;;;;;;;;;20.50;18.00;;;;;10.05;68.62;103197.97;5102690;27;45779;-84
2022/01/29 06:35:55;;;;;;;;;20.50;19.00;;;;;10.05;68.57;103198.84;5102294;27;45214;-87
2022/01/29 06:38:21;;;;;;;;;21.00;19.00;;;;;10.05;68.43;103195.34;5101126;27;46919;-87
2022/01/29 06:40:46;;;;;;;;;21.25;15.25;;;;;10.06;68.58;103195.34;5102270;27;46267;-90
2022/01/29 06:43:12;;;;;;;;;21.75;20.50;;;;;10.06;68.79;103195.34;5102409;27;45310;-85
2022/01/29 06:45:39;;;;;;;;;21.00;16.75;;;;;10.05;68.63;103185.69;5102556;27;45472;-86
2022/01/29 06:48:05;;;;;;;;;23.25;20.50;;;;;10.04;68.77;103186.59;5111782;27;45394;-85
2022/01/29 06:50:31;;;;;;;;;20.00;17.00;;;;;10.04;68.70;103191.84;5101712;27;46344;-86
2022/01/29 06:52:57;;;;;;;;;23.00;19.25;;;;;10.09;68.86;103200.66;5101025;27;45420;-86
2022/01/29 06:55:23;;;;;;;;;22.50;18.00;;;;;10.09;68.86;103195.41;5102650;27;45308;-93
2022/01/29 06:57:49;;;;;;;;;19.50;17.50;;;;;10.09;68.71;103192.78;5102513;27;45317;-93
2022/01/29 07:00:15;;;;;;;;;19.25;17.00;;;;;10.09;68.80;103189.25;5101284;27;47492;-95
2022/01/29 07:02:40;;;;;;;;;17.75;15.50;;;;;10.09;69.04;103184.00;5101554;27;45246;-92
2022/01/29 07:05:08;;;;;;;;;15.00;14.00;;;;;10.12;68.51;103192.78;5102366;27;45827;-93
2022/01/29 07:07:34;;;;;;;;;19.00;16.75;;;;;10.12;68.61;103187.50;5100919;27;46503;-91
2022/01/29 07:09:59;;;;;;;;;19.00;18.00;;;;;10.13;69.13;103180.50;5101711;27;45925;-91
2022/01/29 07:12:26;;;;;;;;;15.50;14.00;;;;;10.15;68.85;103194.53;5101686;27;45298;-88
2022/01/29 07:14:51;;;;;;;;;17.50;15.25;;;;;10.11;69.04;103177.00;5100135;27;45255;-88
2022/01/29 07:17:18;;;;;;;;;19.00;15.25;;;;;10.14;69.01;103184.91;5101622;27;45349;-89
2022/01/29 07:19:45;;;;;;;;;18.50;17.75;;;;;10.16;68.76;103188.44;5101630;27;46389;-89
2022/01/29 07:22:11;;;;;;;;;16.50;14.75;;;;;10.18;69.12;103184.06;5101940;27;45761;-95
2022/01/29 07:24:38;;;;;;;;;15.50;14.25;;;;;10.18;69.26;103172.66;5101096;27;45275;-94
2022/01/29 07:27:04;;;;;;;;;15.75;15.25;;;;;10.17;68.83;103160.41;5100966;27;47131;-95
2022/01/29 07:29:30;;;;;;;;;19.50;18.50;;;;;10.19;69.24;103172.69;5117594;27;47329;-94
2022/01/29 07:31:58;;;;;;;;;17.25;15.75;;;;;10.22;69.03;103174.47;5101337;27;45252;-94
2022/01/29 07:34:25;;;;;;;;;16.25;16.25;;;;;10.22;69.06;103179.72;5101225;27;45549;-96
2022/01/29 07:36:55;;;;;;;;;17.25;13.75;;;;;10.21;68.96;103173.59;5103957;27;46050;-96
2022/01/29 07:39:21;;;;;;;;;14.00;13.25;;;;;10.23;69.17;103177.09;5103219;27;47409;-94
2022/01/29 07:41:47;;;;;;;;;19.75;15.50;;;;;10.22;68.85;103177.97;5101535;27;45452;-95
2022/01/29 07:44:13;;;;;;;;;18.50;18.00;;;;;10.24;69.01;103178.00;5101348;27;45298;-96
2022/01/29 07:46:39;;;;;;;;;16.50;16.00;;;;;10.28;69.04;103179.75;5101113;27;47496;-96
2022/01/29 07:49:04;;;;;;;;;11.00;11.00;;;;;10.27;68.99;103177.13;5100610;27;47252;-91
2022/01/29 07:51:30;;;;;;;;;19.25;16.25;;;;;10.27;69.04;103178.03;5099963;27;45286;-89
2022/01/29 07:53:55;;;;;;;;;15.75;14.75;;;;;10.26;69.31;103176.25;5101177;27;45259;-96
2022/01/29 07:56:21;;;;;;;;;15.75;15.50;;;;;10.29;69.08;103185.91;5100825;27;46999;-96
2022/01/29 07:58:49;;;;;;;;;22.75;16.00;;;;;10.32;69.16;103176.28;5100272;27;46737;-94
2022/01/29 08:01:15;;;;;;;;;18.75;16.25;;;;;10.32;69.26;103178.06;5100401;27;45413;-91
2022/01/29 08:03:41;;;;;;;;;16.25;16.00;;;;;10.35;69.08;103164.91;5101008;27;45440;-93
2022/01/29 08:06:07;;;;;;;;;19.00;17.00;;;;;10.37;69.40;103172.81;5100160;27;45329;-86
2022/01/29 08:08:33;;;;;;;;;17.00;14.75;;;;;10.40;69.03;103178.97;5101435;27;45417;-94
2022/01/29 08:10:59;;;;;;;;;19.50;15.00;;;;;10.45;69.00;103176.38;5100489;27;45295;-95
2022/01/29 08:13:25;;;;;;;;;18.25;16.00;;;;;10.45;69.02;103179.00;5117297;27;45517;-93
2022/01/29 08:15:50;;;;;;;;;15.25;13.00;;;;;10.45;69.17;103171.09;5098840;27;45415;-86
2022/01/29 08:18:16;;;;;;;;;15.25;13.00;;;;;10.53;69.14;103184.34;5099787;27;46156;-90
2022/01/29 08:20:41;;;;;;;;;10.50;9.75;;;;;10.52;68.92;103172.94;5093342;27;45765;-90
2022/01/29 08:23:07;;;;;;;;;13.25;11.50;;;;;10.55;68.92;103177.34;5101183;27;45284;-90
2022/01/29 08:25:33;;;;;;;;;14.25;12.50;;;;;10.57;69.36;103175.59;5100859;27;45404;-95
2022/01/29 08:27:58;;;;;;;;;13.50;13.50;;;;;10.58;69.02;103164.22;5100515;27;45561;-88
2022/01/29 08:30:24;;;;;;;;;15.00;12.00;;;;;10.60;68.96;103170.38;5095392;27;45464;-88
2022/01/29 08:32:49;;;;;;;;;11.00;9.00;;;;;10.61;68.95;103160.72;5084339;27;45444;-88
2022/01/29 08:35:15;;;;;;;;;13.00;9.75;;;;;10.65;69.18;103162.50;5100514;27;45389;-88
2022/01/29 08:37:41;;;;;;;;;10.00;8.00;;;;;10.69;68.87;103169.56;5085589;27;45573;-88
2022/01/29 08:40:07;;;;;;;;;8.25;8.25;;;;;10.71;68.80;103162.56;5090701;27;45735;-88
2022/01/29 08:42:33;;;;;;;;;10.25;8.00;;;;;10.77;69.08;103175.72;5091968;27;45405;-87
2022/01/29 08:45:00;;;;;;;;;10.50;8.25;;;;;10.79;68.76;103173.13;5081855;27;45214;-87
2022/01/29 08:47:26;;;;;;;;;8.00;8.00;;;;;10.85;68.86;103174.88;5089238;27;48369;-87
2022/01/29 08:49:51;;;;;;;;;10.00;8.75;;;;;10.86;68.94;103176.66;5085878;27;45712;-88
2022/01/29 08:52:16;;;;;;;;;9.00;8.75;;;;;10.88;68.71;103177.53;5099709;27;45245;-87
2022/01/29 08:54:42;;;;;;;;;8.00;8.00;;;;;10.85;68.90;103169.63;5096220;27;45207;-88
2022/01/29 08:57:07;;;;;;;;;5.75;5.75;;;;;10.85;68.73;103165.25;5087242;27;45591;-89
2022/01/29 08:59:32;;;;;;;;;5.00;5.00;;;;;10.87;68.75;103160.88;5097628;27;45363;-86
2022/01/29 09:01:58;;;;;;;;;8.00;5.75;;;;;10.87;68.70;103158.25;5099255;27;45226;-86
2022/01/29 09:04:23;;;;;;;;;7.00;5.75;;;;;10.88;68.79;103161.75;5096830;27;45463;-86
2022/01/29 09:06:49;;;;;;;;;6.50;6.50;;;;;10.88;68.56;103154.75;5110041;27;46483;-87
2022/01/29 09:09:20;;;;;;;;;7.25;4.25;;;;;10.91;69.03;103154.75;5096532;27;45393;-87
2022/01/29 09:11:46;;;;;;;;;5.25;5.00;;;;;10.93;68.92;103157.41;5089389;27;45231;-87
2022/01/29 09:14:11;;;;;;;;;4.75;4.00;;;;;10.96;69.13;103160.06;5102760;27;45223;-87
2022/01/29 09:16:37;;;;;;;;;4.00;4.00;;;;;10.96;69.01;103153.91;5098017;27;45377;-87
2022/01/29 09:19:02;;;;;;;;;9.00;7.00;;;;;10.98;69.06;103163.56;5097938;27;45605;-87
2022/01/29 09:21:27;;;;;;;;;8.00;5.00;;;;;11.00;69.20;103169.72;5100959;27;45547;-87
2022/01/29 09:23:56;;;;;;;;;6.25;6.00;;;;;11.01;69.02;103154.81;5100087;27;45387;-87
2022/01/29 09:26:22;;;;;;;;;5.00;3.25;;;;;11.02;69.03;103152.16;5098291;27;45348;-87
2022/01/29 09:28:47;;;;;;;;;6.00;5.00;;;;;11.07;68.77;103156.56;5100026;27;45382;-87
2022/01/29 09:31:13;;;;;;;;;5.00;5.00;;;;;11.14;68.88;103156.59;5100605;27;45402;-87
2022/01/29 09:33:38;;;;;;;;;7.25;5.25;;;;;11.16;68.73;103158.38;5102174;27;45440;-87
2022/01/29 09:36:04;;;;;;;;;5.00;5.00;;;;;11.17;68.90;103147.81;5100680;27;45424;-87
2022/01/29 09:38:29;;;;;;;;;5.75;4.00;;;;;11.18;68.91;103149.59;5092945;27;45431;-87
2022/01/29 09:40:55;;;;;;;;;6.00;5.00;;;;;11.21;69.04;103141.69;5097179;27;45831;-88
2022/01/29 09:43:24;;;;;;;;;4.00;4.00;;;;;11.27;68.85;103145.22;5091321;27;45328;-85
2022/01/29 09:45:51;;;;;;;;;4.75;4.75;;;;;11.28;68.80;103137.34;5099165;27;46342;-85
2022/01/29 09:48:23;;;;;;;;;5.00;5.00;;;;;11.27;68.95;103132.94;5103511;27;45437;-85
2022/01/29 09:50:51;;;;;;;;;6.25;5.00;;;;;11.34;68.90;103136.47;5084016;27;45260;-86
2022/01/29 09:53:17;;;;;;;;;4.25;4.00;;;;;11.35;68.88;103138.22;5096132;27;45361;-85
2022/01/29 09:55:43;;;;;;;;;4.50;4.50;;;;;11.38;68.84;103132.09;5100075;27;47533;-86
2022/01/29 09:58:10;;;;;;;;;6.75;4.25;;;;;11.46;69.14;103147.03;5089688;27;45387;-85
2022/01/29 10:00:36;;;;;;;;;6.00;6.00;;;;;11.51;68.41;103151.44;5101603;27;45173;-85
2022/01/29 10:03:10;;;;;;;;;3.50;3.50;;;;;11.53;68.65;103150.53;5113758;27;45422;-85
2022/01/29 10:05:40;;;;;;;;;6.50;5.75;;;;;11.53;68.50;103145.28;5101606;27;46525;-85
2022/01/29 10:08:06;;;;;;;;;5.25;4.75;;;;;11.56;68.52;103153.19;5103155;27;45320;-84
2022/01/29 10:10:41;;;;;;;;;8.00;5.00;;;;;11.55;68.50;103148.81;5101287;27;45325;-84
2022/01/29 10:13:22;;;;;;;;;5.00;5.00;;;;;11.61;68.37;103158.47;5108064;27;45465;-85
2022/01/29 10:15:47;;;;;;;;;9.75;6.75;;;;;11.61;68.32;103147.94;5092312;27;45523;-85
2022/01/29 10:18:20;;;;;;;;;8.25;6.75;;;;;11.64;68.25;103155.84;5098290;27;45588;-86
2022/01/29 10:20:46;;;;;;;;;7.25;6.00;;;;;11.66;68.24;103158.47;5101638;27;45272;-86
2022/01/29 10:23:11;;;;;;;;;5.75;5.75;;;;;11.63;68.35;103148.81;5101926;27;45456;-85
2022/01/29 10:25:41;;;;;;;;;6.50;5.25;;;;;11.63;68.64;103159.34;5084522;27;45685;-86
2022/01/29 10:28:20;;;;;;;;;6.75;6.50;;;;;11.68;68.57;103157.59;5092453;27;45498;-85
2022/01/29 10:30:48;;;;;;;;;9.00;7.00;;;;;11.73;68.65;103160.22;5088446;27;45542;-85
2022/01/29 10:33:21;;;;;;;;;8.25;6.50;;;;;11.74;68.68;103156.72;5095179;27;46742;-84
2022/01/29 10:35:49;;;;;;;;;5.25;5.25;;;;;11.74;68.46;103154.09;5094481;27;48105;-87
2022/01/29 10:38:24;;;;;;;;;6.50;6.00;;;;;11.74;68.31;103156.72;5097478;27;45391;-85
2022/01/29 10:41:24;;;;;;;;;5.25;5.00;;;;;11.75;68.23;103147.97;5094193;27;45525;-84
2022/01/29 10:44:15;;;;;;;;;5.25;5.25;;;;;11.77;68.43;103156.75;5101377;27;45350;-88
2022/01/29 10:46:52;;;;;;;;;6.00;4.50;;;;;11.76;68.53;103148.81;5095871;27;45573;-86
2022/01/29 10:49:23;;;;;;;;;5.75;5.00;;;;;11.82;68.29;103154.09;5098053;27;45644;-86
2022/01/29 10:51:55;;;;;;;;;5.00;5.00;;;;;11.84;68.37;103148.81;5097748;27;45473;-86
2022/01/29 10:54:22;;;;;;;;;7.00;5.75;;;;;11.84;68.49;103148.81;5100895;27;45367;-86
2022/01/29 10:57:00;;;;;;;;;7.00;6.00;;;;;11.85;68.21;103146.22;5100786;27;45600;-87
2022/01/29 10:59:28;;;;;;;;;7.25;7.00;;;;;11.87;68.33;103148.84;5093498;27;45525;-86
2022/01/29 11:01:58;;;;;;;;;9.75;5.25;;;;;11.91;68.03;103153.22;5098623;27;45362;-84
2022/01/29 11:04:27;;;;;;;;;6.75;4.00;;;;;11.90;68.00;103152.34;5096317;27;45543;-93
2022/01/29 11:06:54;;;;;;;;;6.00;5.00;;;;;11.90;68.29;103157.59;5106135;27;46424;-91
2022/01/29 11:09:21;;;;;;;;;5.75;4.50;;;;;11.91;68.06;103147.94;5108878;27;45227;-94
2022/01/29 11:11:48;;;;;;;;;6.25;5.00;;;;;11.88;67.95;103150.56;5119362;27;45369;-93
2022/01/29 11:14:17;;;;;;;;;4.75;4.75;;;;;11.91;67.99;103146.19;5102808;27;46514;-94
2022/01/29 11:16:44;;;;;;;;;4.75;4.75;;;;;11.93;67.94;103144.44;5114658;27;47477;-92
2022/01/29 11:19:10;;;;;;;;;5.75;5.75;;;;;11.98;67.81;103151.47;5099222;27;45343;-92
2022/01/29 11:21:36;;;;;;;;;7.00;5.75;;;;;11.98;67.80;103149.72;5100953;27;45508;-92
2022/01/29 11:24:03;;;;;;;;;7.50;7.50;;;;;12.02;67.79;103155.88;5110480;27;46186;-93
2022/01/29 11:26:30;;;;;;;;;9.00;6.00;;;;;12.04;67.51;103154.09;5105114;27;46532;-92
2022/01/29 11:29:26;;;;;;;;;5.00;5.00;;;;;12.09;67.84;103152.34;5101227;27;45778;-96